createdAt,value
2022-12-14T00:01:37.752Z,99582.56
2022-12-14T00:04:04.581Z,99590.16
2022-12-14T00:06:33.569Z,99594.03
2022-12-14T00:09:03.711Z,99594.03
2022-12-14T00:11:31.903Z,99583.75
2022-12-14T00:14:01.120Z,99592.94
2022-12-14T00:16:30.155Z,99600.28
2022-12-14T00:18:58.702Z,99589.38
2022-12-14T00:21:26.713Z,99583.19
2022-12-14T00:23:54.457Z,99581.16
2022-12-14T00:26:26.958Z,99590.97
2022-12-14T00:28:55.250Z,99600.22
2022-12-14T00:31:22.987Z,99601.41
2022-12-14T00:33:50.535Z,99599.31
2022-12-14T00:36:17.683Z,99593.97
2022-12-14T00:38:44.912Z,99588.41
2022-12-14T00:41:11.903Z,99575.06
2022-12-14T00:43:38.695Z,99569.63
2022-12-14T00:46:06.009Z,99566.72
2022-12-14T00:48:33.362Z,99548.03
2022-12-14T00:51:00.362Z,99520.34
2022-12-14T00:53:27.109Z,99528.34
2022-12-14T00:55:53.818Z,99544.03
2022-12-14T00:58:22.821Z,99517.47
2022-12-14T01:01:00.214Z,99534.97
2022-12-14T01:03:27.577Z,99540.22
2022-12-14T01:05:54.625Z,99533.66
2022-12-14T01:08:21.487Z,99537.06
2022-12-14T01:10:49.836Z,99521.94
2022-12-14T01:13:16.563Z,99518.41
2022-12-14T01:15:43.231Z,99514.34
2022-12-14T01:18:09.923Z,99525.47
2022-12-14T01:20:36.545Z,99528.88
2022-12-14T01:23:03.224Z,99510.09
2022-12-14T01:25:29.921Z,99518.38
2022-12-14T01:27:56.648Z,99525.03
2022-12-14T01:30:23.348Z,99524.50
2022-12-14T01:32:50.051Z,99528.25
2022-12-14T01:35:17.327Z,99527.66
2022-12-14T01:37:44.186Z,99522.13
2022-12-14T01:40:11.271Z,99529.22
2022-12-14T01:42:38.273Z,99540.06
2022-12-14T01:45:06.370Z,99529.16
2022-12-14T01:47:43.847Z,99525.38
2022-12-14T01:50:30.776Z,99536.81
2022-12-14T01:53:02.115Z,99531.84
2022-12-14T01:55:34.181Z,99534.94
2022-12-14T01:58:00.768Z,99527.44
2022-12-14T02:00:27.591Z,99531.69
2022-12-14T02:03:06.757Z,99526.78
2022-12-14T02:05:37.679Z,99521.09
2022-12-14T02:08:06.684Z,99518.75
2022-12-14T02:10:34.224Z,99524.75
2022-12-14T02:13:11.978Z,99527.13
2022-12-14T02:15:39.475Z,99525.22
2022-12-14T02:18:11.571Z,99539.97
2022-12-14T02:21:08.835Z,99530.34
2022-12-14T02:24:17.377Z,99531.19
2022-12-14T02:26:58.182Z,99523.84
2022-12-14T02:29:40.148Z,99513.59
2022-12-14T02:32:34.836Z,99503.72
2022-12-14T02:35:10.539Z,99509.88
2022-12-14T02:38:09.108Z,99520.00
2022-12-14T02:40:51.588Z,99527.59
2022-12-14T02:43:24.260Z,99525.00
2022-12-14T02:46:05.744Z,99532.38
2022-12-14T02:48:48.641Z,99546.69
2022-12-14T02:51:22.688Z,99553.50
2022-12-14T02:54:00.712Z,99554.97
2022-12-14T02:56:36.971Z,99546.13
2022-12-14T02:59:08.170Z,99554.69
2022-12-14T03:01:37.888Z,99550.19
2022-12-14T03:04:04.992Z,99554.88
2022-12-14T03:06:31.775Z,99558.78
2022-12-14T03:09:02.634Z,99554.41
2022-12-14T03:11:44.364Z,99550.81
2022-12-14T03:14:17.337Z,99552.09
2022-12-14T03:16:48.156Z,99560.28
2022-12-14T03:19:26.499Z,99562.75
2022-12-14T03:22:03.882Z,99582.44
2022-12-14T03:24:39.019Z,99587.97
2022-12-14T03:27:18.175Z,99595.53
2022-12-14T03:29:53.943Z,99601.09
2022-12-14T03:32:24.118Z,99598.78
2022-12-14T03:35:02.429Z,99596.97
2022-12-14T03:37:40.070Z,99603.84
2022-12-14T03:40:10.787Z,99607.50
2022-12-14T03:42:59.083Z,99611.47
2022-12-14T03:45:44.265Z,99613.72
2022-12-14T03:48:25.980Z,99619.84
2022-12-14T03:51:00.118Z,99613.97
2022-12-14T03:53:48.013Z,99611.84
2022-12-14T03:56:14.745Z,99615.50
2022-12-14T03:59:08.442Z,99613.19
2022-12-14T04:01:56.273Z,99611.09
2022-12-14T04:04:49.525Z,99619.06
2022-12-14T04:07:22.269Z,99620.47
2022-12-14T04:10:31.792Z,99626.41
2022-12-14T04:13:31.383Z,99625.16
2022-12-14T04:16:23.561Z,99624.13
2022-12-14T04:19:00.420Z,99649.19
2022-12-14T04:21:42.662Z,99634.78
2022-12-14T04:24:51.929Z,99635.41
2022-12-14T04:27:46.525Z,99644.03
2022-12-14T04:30:14.425Z,99655.09
2022-12-14T04:32:51.714Z,99667.97
2022-12-14T04:35:24.687Z,99686.06
2022-12-14T04:37:57.649Z,99686.06
2022-12-14T04:40:40.871Z,99694.56
2022-12-14T04:43:17.487Z,99702.81
2022-12-14T04:45:52.144Z,99710.97
2022-12-14T04:48:23.746Z,99711.34
2022-12-14T04:51:00.048Z,99719.53
2022-12-14T04:53:31.152Z,99729.75
2022-12-14T04:56:08.740Z,99730.78
2022-12-14T04:58:36.426Z,99733.47
2022-12-14T05:01:31.215Z,99748.91
2022-12-14T05:04:12.538Z,99756.72
2022-12-14T05:06:48.465Z,99759.03
2022-12-14T05:09:46.433Z,99768.28
2022-12-14T05:12:21.901Z,99765.38
2022-12-14T05:14:54.744Z,99773.34
2022-12-14T05:17:21.528Z,99776.16
2022-12-14T05:19:50.336Z,99774.72
2022-12-14T05:22:18.279Z,99782.50
2022-12-14T05:24:44.928Z,99778.59
2022-12-14T05:27:11.607Z,99782.69
2022-12-14T05:29:38.290Z,99783.88
2022-12-14T05:32:05.050Z,99790.06
2022-12-14T05:34:32.074Z,99798.84
2022-12-14T05:36:58.819Z,99808.72
2022-12-14T05:39:25.439Z,99818.75
2022-12-14T05:41:53.435Z,99817.13
2022-12-14T05:44:20.623Z,99809.56
2022-12-14T05:46:47.560Z,99806.69
2022-12-14T05:49:14.269Z,99806.69
2022-12-14T05:51:40.951Z,99806.47
2022-12-14T05:54:07.652Z,99812.66
2022-12-14T05:56:34.343Z,99811.56
2022-12-14T05:59:02.511Z,99809.97
2022-12-14T06:01:29.287Z,99816.91
2022-12-14T06:03:56.077Z,99824.75
2022-12-14T06:06:22.748Z,99829.44
2022-12-14T06:08:49.508Z,99833.53
2022-12-14T06:11:21.276Z,99840.50
2022-12-14T06:13:48.840Z,99841.34
2022-12-14T06:16:21.534Z,99839.69
2022-12-14T06:18:50.401Z,99847.28
2022-12-14T06:21:19.388Z,99854.63
2022-12-14T06:23:46.644Z,99854.84
2022-12-14T06:26:14.942Z,99856.88
2022-12-14T06:28:41.981Z,99857.28
2022-12-14T06:31:15.704Z,99851.31
2022-12-14T06:33:42.981Z,99860.09
2022-12-14T06:36:23.653Z,99860.94
2022-12-14T06:38:54.396Z,99867.09
2022-12-14T06:41:22.301Z,99879.59
2022-12-14T06:43:49.418Z,99881.41
2022-12-14T06:46:19.679Z,99881.63
2022-12-14T06:48:54.759Z,99875.25
2022-12-14T06:51:23.333Z,99878.75
2022-12-14T06:53:52.038Z,99883.91
2022-12-14T06:56:20.436Z,99882.25
2022-12-14T06:58:47.504Z,99878.75
2022-12-14T07:01:22.381Z,99891.25
2022-12-14T07:03:54.849Z,99903.19
2022-12-14T07:06:23.043Z,99911.19
2022-12-14T07:08:53.440Z,99911.19
2022-12-14T07:11:20.538Z,99916.09
2022-12-14T07:13:48.971Z,99923.91
2022-12-14T07:16:21.853Z,99927.97
2022-12-14T07:18:49.554Z,99932.69
2022-12-14T07:21:18.920Z,99940.53
2022-12-14T07:23:47.510Z,99945.50
2022-12-14T07:26:17.470Z,99945.50
2022-12-14T07:28:45.381Z,99958.00
2022-12-14T07:31:15.371Z,99957.22
2022-12-14T07:33:42.867Z,99967.06
2022-12-14T07:36:15.868Z,99970.16
2022-12-14T07:38:43.771Z,99964.41
2022-12-14T07:41:20.544Z,99975.28
2022-12-14T07:43:49.814Z,99983.66
2022-12-14T07:46:22.265Z,99990.84
2022-12-14T07:48:50.016Z,100001.31
2022-12-14T07:51:19.022Z,100018.91
2022-12-14T07:53:46.664Z,100030.56
2022-12-14T07:56:15.951Z,100056.63
2022-12-14T07:58:43.060Z,100067.25
2022-12-14T08:01:12.698Z,100050.66
2022-12-14T08:03:42.108Z,100057.38
2022-12-14T08:06:11.677Z,100045.00
2022-12-14T08:08:39.297Z,100046.63
2022-12-14T08:11:07.177Z,100047.38
2022-12-14T08:13:34.323Z,100048.56
2022-12-14T08:16:13.574Z,100055.03
2022-12-14T08:18:41.764Z,100055.63
2022-12-14T08:21:10.788Z,100058.28
2022-12-14T08:23:37.908Z,100061.75
2022-12-14T08:26:06.109Z,100061.88
2022-12-14T08:28:35.978Z,100072.09
2022-12-14T08:31:08.871Z,100086.59
2022-12-14T08:33:37.370Z,100089.81
2022-12-14T08:36:09.653Z,100097.94
2022-12-14T08:38:37.541Z,100098.34
2022-12-14T08:41:09.858Z,100099.13
2022-12-14T08:43:36.909Z,100096.41
2022-12-14T08:46:04.803Z,100087.69
2022-12-14T08:48:31.814Z,100104.66
2022-12-14T08:51:06.656Z,100114.06
2022-12-14T08:53:34.002Z,100122.38
2022-12-14T08:56:10.514Z,100123.97
2022-12-14T08:58:39.211Z,100112.22
2022-12-14T09:01:15.119Z,100130.06
2022-12-14T09:03:47.251Z,100132.84
2022-12-14T09:06:22.037Z,100121.81
2022-12-14T09:08:49.923Z,100120.91
2022-12-14T09:11:19.045Z,100118.53
2022-12-14T09:13:46.706Z,100138.56
2022-12-14T09:16:19.329Z,100134.97
2022-12-14T09:18:47.235Z,100152.00
2022-12-14T09:21:14.687Z,100163.47
2022-12-14T09:23:42.294Z,100176.38
2022-12-14T09:26:12.846Z,100173.91
2022-12-14T09:28:42.441Z,100183.44
2022-12-14T09:31:14.317Z,100195.19
2022-12-14T09:33:41.228Z,100188.56
2022-12-14T09:36:17.424Z,100197.31
2022-12-14T09:38:51.179Z,100195.16
2022-12-14T09:41:45.451Z,100193.44
2022-12-14T09:44:43.508Z,100183.66
2022-12-14T09:47:19.239Z,100188.09
2022-12-14T09:49:54.331Z,100200.16
2022-12-14T09:52:44.440Z,100209.28
2022-12-14T09:55:41.255Z,100207.22
2022-12-14T09:58:20.262Z,100204.34
2022-12-14T10:01:02.101Z,100214.50
2022-12-14T10:03:32.066Z,100214.63
2022-12-14T10:06:11.173Z,100216.84
2022-12-14T10:08:54.879Z,100217.22
2022-12-14T10:11:50.778Z,100216.53
2022-12-14T10:14:44.441Z,100218.16
2022-12-14T10:17:26.444Z,100216.28
2022-12-14T10:19:55.638Z,100211.16
2022-12-14T10:22:35.846Z,100204.00
2022-12-14T10:25:13.994Z,100203.88
2022-12-14T10:28:09.840Z,100203.53
2022-12-14T10:30:34.764Z,100202.00
2022-12-14T10:33:13.590Z,100210.88
2022-12-14T10:36:11.972Z,100211.00
2022-12-14T10:39:13.855Z,100222.81
2022-12-14T10:42:01.367Z,100221.31
2022-12-14T10:48:06.264Z,100206.13
2022-12-14T10:51:15.697Z,100203.06
2022-12-14T10:53:51.694Z,100212.56
2022-12-14T10:56:32.387Z,100218.03
2022-12-14T10:59:17.298Z,100220.25
2022-12-14T11:01:46.480Z,100216.75
2022-12-14T11:04:29.774Z,100219.19
2022-12-14T11:07:02.044Z,100214.41
2022-12-14T11:09:29.528Z,100205.28
2022-12-14T11:12:03.403Z,100196.19
2022-12-14T11:14:30.284Z,100195.38
2022-12-14T11:16:57.009Z,100180.06
2022-12-14T11:19:26.056Z,100183.78
2022-12-14T11:22:09.693Z,100177.75
2022-12-14T11:24:45.499Z,100175.75
2022-12-14T11:27:16.906Z,100180.91
2022-12-14T11:29:47.249Z,100185.59
2022-12-14T11:32:25.462Z,100198.06
2022-12-14T11:34:56.956Z,100194.44
2022-12-14T11:37:34.697Z,100200.66
2022-12-14T11:40:04.819Z,100202.38
2022-12-14T11:42:32.222Z,100204.13
2022-12-14T11:45:28.583Z,100206.72
2022-12-14T11:48:15.536Z,100206.47
2022-12-14T11:50:43.877Z,100203.56
2022-12-14T11:53:16.119Z,100206.84
2022-12-14T11:55:52.783Z,100205.56
2022-12-14T11:58:28.031Z,100205.56
2022-12-14T12:01:02.368Z,100196.91
2022-12-14T12:03:33.181Z,100205.75
2022-12-14T12:06:24.703Z,100198.88
2022-12-14T12:08:57.096Z,100184.28
2022-12-14T12:11:30.731Z,100186.50
2022-12-14T12:14:24.564Z,100186.75
2022-12-14T12:16:53.171Z,100185.34
2022-12-14T12:19:28.843Z,100184.06
2022-12-14T12:21:59.635Z,100193.16
2022-12-14T12:25:00.962Z,100193.41
2022-12-14T12:27:27.552Z,100190.56
2022-12-14T12:29:57.156Z,100188.22
2022-12-14T12:32:27.514Z,100198.47
2022-12-14T12:35:18.812Z,100199.69
2022-12-14T12:37:48.483Z,100195.34
2022-12-14T12:40:29.264Z,100182.66
2022-12-14T12:43:11.281Z,100189.47
2022-12-14T12:45:44.578Z,100182.47
2022-12-14T12:48:21.392Z,100180.72
2022-12-14T12:50:56.715Z,100169.97
2022-12-14T12:53:39.109Z,100176.19
2022-12-14T12:56:15.823Z,100170.16
2022-12-14T12:58:52.118Z,100165.22
2022-12-14T13:01:22.906Z,100163.00
2022-12-14T13:03:53.648Z,100163.44
2022-12-14T13:06:40.562Z,100163.19
2022-12-14T13:09:19.372Z,100150.34
2022-12-14T13:11:47.324Z,100150.03
2022-12-14T13:14:27.833Z,100139.75
2022-12-14T13:16:55.374Z,100137.66
2022-12-14T13:19:50.750Z,100141.97
2022-12-14T13:22:29.703Z,100137.28
2022-12-14T13:25:00.271Z,100142.19
2022-12-14T13:27:32.801Z,100134.59
2022-12-14T13:30:21.840Z,100123.84
2022-12-14T13:33:06.629Z,100129.56
2022-12-14T13:35:42.164Z,100125.84
2022-12-14T13:38:20.853Z,100120.00
2022-12-14T13:40:56.632Z,100116.88
2022-12-14T13:43:39.925Z,100111.97
2022-12-14T13:46:29.200Z,100111.47
2022-12-14T13:49:03.023Z,100110.53
2022-12-14T13:51:32.731Z,100116.50
2022-12-14T13:54:03.019Z,100113.22
2022-12-14T13:56:33.814Z,100104.13
2022-12-14T13:59:05.001Z,100114.72
2022-12-14T14:01:47.066Z,100111.81
2022-12-14T14:04:14.241Z,100112.38
2022-12-14T14:06:46.532Z,100115.16
2022-12-14T14:09:31.293Z,100113.41
2022-12-14T14:12:35.127Z,100115.94
2022-12-14T14:15:27.326Z,100113.34
2022-12-14T14:17:55.210Z,100118.84
2022-12-14T14:20:43.051Z,100119.16
2022-12-14T14:23:16.032Z,100116.03
2022-12-14T14:26:39.852Z,100117.53
2022-12-14T14:29:23.014Z,100116.66
2022-12-14T14:31:56.875Z,100114.81
2022-12-14T14:34:25.198Z,100117.34
2022-12-14T14:36:52.616Z,100116.06
2022-12-14T14:42:27.499Z,100144.34
2022-12-14T14:45:01.717Z,100136.16
2022-12-14T14:47:33.540Z,100133.50
2022-12-14T14:50:15.165Z,100142.19
2022-12-14T14:52:41.803Z,100134.59
2022-12-14T14:58:23.437Z,100133.69
2022-12-14T15:00:59.484Z,100136.22
2022-12-14T15:03:34.267Z,100132.97
2022-12-14T15:06:01.322Z,100136.09
2022-12-14T15:08:34.223Z,100128.38
2022-12-14T15:11:05.375Z,100127.41
2022-12-14T15:13:51.479Z,100123.09
2022-12-14T15:16:33.608Z,100125.38
2022-12-14T15:19:18.783Z,100125.69
2022-12-14T15:21:45.887Z,100121.56
2022-12-14T15:24:13.824Z,100127.38
2022-12-14T15:26:40.645Z,100126.81
2022-12-14T15:29:17.498Z,100120.19
2022-12-14T15:31:45.479Z,100116.75
2022-12-14T15:34:20.640Z,100125.22
2022-12-14T15:36:48.234Z,100119.19
2022-12-14T15:39:34.057Z,100122.31
2022-12-14T15:42:11.436Z,100127.03
2022-12-14T15:44:40.242Z,100125.06
2022-12-14T15:47:07.858Z,100122.84
2022-12-14T15:49:34.523Z,100126.81
2022-12-14T15:52:02.716Z,100126.03
2022-12-14T15:54:29.447Z,100115.75
2022-12-14T15:57:00.174Z,100113.16
2022-12-14T15:59:35.902Z,100112.88
2022-12-14T16:02:15.049Z,100135.09
2022-12-14T16:04:42.606Z,100136.72
2022-12-14T16:07:23.811Z,100130.78
2022-12-14T16:09:57.053Z,100126.69
2022-12-14T16:12:45.508Z,100123.56
2022-12-14T16:15:38.588Z,100117.25
2022-12-14T16:18:05.533Z,100115.81
2022-12-14T16:20:35.933Z,100108.75
2022-12-14T16:23:07.143Z,100104.66
2022-12-14T16:25:36.042Z,100113.66
2022-12-14T16:28:38.248Z,100123.13
2022-12-14T16:31:14.434Z,100122.16
2022-12-14T16:33:42.813Z,100119.47
2022-12-14T16:36:18.319Z,100117.41
2022-12-14T16:39:20.879Z,100106.09
2022-12-14T16:42:00.687Z,100116.22
2022-12-14T16:44:33.192Z,100117.75
2022-12-14T16:47:22.605Z,100106.00
2022-12-14T16:50:00.150Z,100109.28
2022-12-14T16:52:45.083Z,100105.56
2022-12-14T16:55:20.241Z,100109.72
2022-12-14T16:57:54.199Z,100100.22
2022-12-14T17:00:29.566Z,100104.72
2022-12-14T17:03:24.562Z,100098.13
2022-12-14T17:05:55.534Z,100097.88
2022-12-14T17:08:22.564Z,100093.09
2022-12-14T17:10:49.313Z,100092.06
2022-12-14T17:13:16.191Z,100077.44
2022-12-14T17:16:04.567Z,100071.19
2022-12-14T17:18:39.173Z,100074.16
2022-12-14T17:21:07.466Z,100072.25
2022-12-14T17:23:39.958Z,100083.31
2022-12-14T17:26:06.708Z,100084.50
2022-12-14T17:28:34.679Z,100082.50
2022-12-14T17:31:03.159Z,100073.50
2022-12-14T17:33:31.798Z,100075.56
2022-12-14T17:35:59.265Z,100074.38
2022-12-14T17:38:26.299Z,100070.84
2022-12-14T17:40:56.799Z,100065.47
2022-12-14T17:43:27.827Z,100064.41
2022-12-14T17:45:55.801Z,100062.81
2022-12-14T17:48:22.767Z,100064.66
2022-12-14T17:50:50.439Z,100065.25
2022-12-14T17:53:23.407Z,100063.41
2022-12-14T17:55:50.414Z,100064.22
2022-12-14T17:58:17.192Z,100066.28
2022-12-14T18:01:00.123Z,100060.13
2022-12-14T18:03:30.279Z,100058.31
2022-12-14T18:05:58.659Z,100062.16
2022-12-14T18:08:26.779Z,100067.28
2022-12-14T18:10:59.976Z,100060.34
2022-12-14T18:13:28.617Z,100062.84
2022-12-14T18:15:55.773Z,100061.44
2022-12-14T18:18:25.638Z,100068.78
2022-12-14T18:20:54.898Z,100076.81
2022-12-14T18:23:22.952Z,100059.31
2022-12-14T18:25:55.803Z,100072.09
2022-12-14T18:28:22.712Z,100070.69
2022-12-14T18:30:55.748Z,100078.69
2022-12-14T18:33:25.543Z,100075.56
2022-12-14T18:35:54.123Z,100082.34
2022-12-14T18:38:21.132Z,100068.97
2022-12-14T18:40:50.427Z,100078.25
2022-12-14T18:43:20.102Z,100083.81
2022-12-14T18:45:48.314Z,100072.72
2022-12-14T18:48:15.391Z,100075.81
2022-12-14T18:50:43.244Z,100073.41
2022-12-14T18:53:15.003Z,100081.25
2022-12-14T18:55:42.711Z,100085.03
2022-12-14T18:58:18.693Z,100078.03
2022-12-14T19:00:45.852Z,100074.50
2022-12-14T19:03:12.926Z,100078.03
2022-12-14T19:05:40.755Z,100074.13
2022-12-14T19:08:10.231Z,100067.53
2022-12-14T19:10:39.751Z,100060.31
2022-12-14T19:13:06.625Z,100066.91
2022-12-14T19:15:35.392Z,100058.28
2022-12-14T19:18:02.212Z,100062.63
2022-12-14T19:20:29.737Z,100055.41
2022-12-14T19:22:56.621Z,100053.03
2022-12-14T19:25:24.014Z,100054.28
2022-12-14T19:30:39.887Z,100058.38
2022-12-14T19:33:06.587Z,100051.59
2022-12-14T19:35:33.296Z,100056.16
2022-12-14T19:38:00.034Z,100059.88
2022-12-14T19:40:26.758Z,100048.78
2022-12-14T19:42:53.499Z,100046.28
2022-12-14T19:45:20.355Z,100047.38
2022-12-14T19:47:47.087Z,100048.41
2022-12-14T19:50:14.977Z,100049.63
2022-12-14T19:52:43.189Z,100059.09
2022-12-14T19:55:11.346Z,100051.25
2022-12-14T19:57:39.442Z,100047.16
2022-12-14T20:00:08.190Z,100046.34
2022-12-14T20:02:38.232Z,100044.94
2022-12-14T20:05:05.954Z,100043.28
2022-12-14T20:07:32.634Z,100032.38
2022-12-14T20:09:59.300Z,100034.41
2022-12-14T20:12:25.956Z,100035.69
2022-12-14T20:14:52.698Z,100036.13
2022-12-14T20:17:19.393Z,100026.03
2022-12-14T20:19:46.255Z,100017.03
2022-12-14T20:22:14.883Z,100011.06
2022-12-14T20:24:42.778Z,100009.47
2022-12-14T20:27:09.365Z,100011.09
2022-12-14T20:29:37.262Z,100015.72
2022-12-14T20:32:04.255Z,100017.56
2022-12-14T20:34:30.978Z,100011.88
2022-12-14T20:36:57.738Z,100019.84
2022-12-14T20:39:24.503Z,100016.59
2022-12-14T20:41:51.319Z,100020.31
2022-12-14T20:44:18.123Z,100012.09
2022-12-14T20:46:46.450Z,100009.66
2022-12-14T20:49:15.969Z,100002.88
2022-12-14T20:51:43.965Z,100004.75
2022-12-14T20:54:14.094Z,100000.63
2022-12-14T20:56:41.171Z,100006.78
2022-12-14T20:59:09.051Z,100001.88
2022-12-14T21:01:38.336Z,99991.41
2022-12-14T21:04:06.374Z,99990.59
2022-12-14T21:06:33.454Z,99983.00
2022-12-14T21:09:06.520Z,99977.28
2022-12-14T21:12:00.806Z,99976.22
2022-12-14T21:14:33.214Z,99977.31
2022-12-14T21:17:01.233Z,99966.63
2022-12-14T21:19:28.431Z,99972.97
2022-12-14T21:21:55.390Z,99969.88
2022-12-14T21:25:01.052Z,99956.81
2022-12-14T21:27:23.041Z,99942.22
2022-12-14T21:29:50.434Z,99941.59
2022-12-14T21:32:18.472Z,99944.66
2022-12-14T21:34:45.983Z,99952.72
2022-12-14T21:37:13.416Z,99954.94
2022-12-14T21:39:40.391Z,99949.44
2022-12-14T21:42:13.908Z,99947.00
2022-12-14T21:44:45.801Z,99944.53
2022-12-14T21:47:22.191Z,99942.53
2022-12-14T21:49:49.286Z,99945.19
2022-12-14T21:52:19.146Z,99933.72
2022-12-14T21:54:46.342Z,99938.41
2022-12-14T21:57:37.617Z,99950.72
2022-12-14T22:00:06.348Z,99937.19
2022-12-14T22:02:40.060Z,99925.28
2022-12-14T22:05:07.297Z,99919.97
2022-12-14T22:07:34.412Z,99914.00
2022-12-14T22:10:01.230Z,99925.66
2022-12-14T22:12:28.342Z,99938.38
2022-12-14T22:14:55.123Z,99936.53
2022-12-14T22:17:21.821Z,99934.06
2022-12-14T22:19:50.942Z,99933.06
2022-12-14T22:22:17.719Z,99940.22
2022-12-14T22:24:45.056Z,99935.94
2022-12-14T22:27:12.864Z,99927.09
2022-12-14T22:29:40.211Z,99929.19
2022-12-14T22:32:07.479Z,99925.72
2022-12-14T22:34:34.707Z,99917.72
2022-12-14T22:37:01.746Z,99915.66
2022-12-14T22:39:28.879Z,99912.41
2022-12-14T22:41:55.540Z,99923.22
2022-12-14T22:44:22.216Z,99933.28
2022-12-14T22:46:49.928Z,99930.63
2022-12-14T22:49:18.380Z,99915.84
2022-12-14T22:51:45.668Z,99909.44
2022-12-14T22:54:20.877Z,99905.16
2022-12-14T22:56:56.834Z,99898.63
2022-12-14T22:59:33.697Z,99883.47
2022-12-14T23:02:00.674Z,99874.84
2022-12-14T23:06:54.849Z,99876.88
2022-12-14T23:09:40.493Z,99887.91
2022-12-14T23:12:26.222Z,99884.41
2022-12-14T23:15:11.193Z,99868.84
2022-12-14T23:17:56.507Z,99864.53
2022-12-14T23:20:41.512Z,99860.22
2022-12-14T23:23:28.149Z,99850.59
2022-12-14T23:26:14.322Z,99844.66
2022-12-14T23:28:59.863Z,99838.31
2022-12-14T23:31:45.178Z,99840.75
2022-12-14T23:34:30.712Z,99830.56
2022-12-14T23:37:20.202Z,99820.31
2022-12-14T23:40:06.688Z,99810.47
2022-12-14T23:42:51.843Z,99799.47
2022-12-14T23:45:37.036Z,99794.31
2022-12-14T23:48:22.246Z,99806.81
2022-12-14T23:51:07.534Z,99811.94
2022-12-14T23:53:52.715Z,99815.22
2022-12-14T23:56:37.888Z,99797.59
2022-12-14T23:59:28.017Z,99811.72
